sensor_id;sensor_type;location;lat;lon;timestamp;pressure;altitude;pressure_sealevel;temperature;humidity
12676;BME280;63820;65.654;21.944;2024-02-23T00:00:39;99353.41;;;0.92;100.00
12676;BME280;63820;65.654;21.944;2024-02-23T00:03:23;99347.44;;;0.92;100.00
12676;BME280;63820;65.654;21.944;2024-02-23T00:06:07;99362.75;;;0.95;100.00
12676;BME280;63820;65.654;21.944;2024-02-23T00:08:53;99357.56;;;0.98;100.00
12676;BME280;63820;65.654;21.944;2024-02-23T00:11:41;99359.38;;;0.93;100.00
12676;BME280;63820;65.654;21.944;2024-02-23T00:14:29;99361.81;;;0.99;100.00
12676;BME280;63820;65.654;21.944;2024-02-23T00:17:14;99367.78;;;0.98;100.00
12676;BME280;63820;65.654;21.944;2024-02-23T00:19:59;99359.06;;;1.05;100.00
12676;BME280;63820;65.654;21.944;2024-02-23T00:22:43;99354.00;;;1.04;100.00
12676;BME280;63820;65.654;21.944;2024-02-23T00:25:27;99354.03;;;1.02;100.00
12676;BME280;63820;65.654;21.944;2024-02-23T00:28:11;99351.59;;;0.97;100.00
12676;BME280;63820;65.654;21.944;2024-02-23T00:30:55;99360.75;;;1.06;100.00
12676;BME280;63820;65.654;21.944;2024-02-23T00:33:39;99368.47;;;1.05;100.00
12676;BME280;63820;65.654;21.944;2024-02-23T00:36:26;99358.22;;;1.05;100.00
12676;BME280;63820;65.654;21.944;2024-02-23T00:39:10;99357.34;;;1.06;100.00
12676;BME280;63820;65.654;21.944;2024-02-23T00:41:54;99363.31;;;1.06;100.00
12676;BME280;63820;65.654;21.944;2024-02-23T00:44:38;99356.44;;;1.08;100.00
12676;BME280;63820;65.654;21.944;2024-02-23T00:47:22;99358.13;;;1.09;100.00
12676;BME280;63820;65.654;21.944;2024-02-23T00:50:06;99355.56;;;1.09;100.00
12676;BME280;63820;65.654;21.944;2024-02-23T00:52:50;99363.13;;;1.14;100.00
12676;BME280;63820;65.654;21.944;2024-02-23T00:55:34;99363.13;;;1.14;100.00
12676;BME280;63820;65.654;21.944;2024-02-23T00:58:18;99359.75;;;1.13;100.00
12676;BME280;63820;65.654;21.944;2024-02-23T01:01:02;99358.81;;;1.16;100.00
12676;BME280;63820;65.654;21.944;2024-02-23T01:03:47;99351.91;;;1.19;100.00
12676;BME280;63820;65.654;21.944;2024-02-23T01:06:31;99357.78;;;1.24;100.00
12676;BME280;63820;65.654;21.944;2024-02-23T01:09:15;99364.69;;;1.21;100.00
12676;BME280;63820;65.654;21.944;2024-02-23T01:12:01;99363.84;;;1.20;100.00
12676;BME280;63820;65.654;21.944;2024-02-23T01:14:45;99371.50;;;1.22;100.00
12676;BME280;63820;65.654;21.944;2024-02-23T01:17:29;99368.97;;;1.20;100.00
12676;BME280;63820;65.654;21.944;2024-02-23T01:20:13;99367.22;;;1.22;100.00
12676;BME280;63820;65.654;21.944;2024-02-23T01:22:57;99350.09;;;1.24;100.00
12676;BME280;63820;65.654;21.944;2024-02-23T01:25:41;99365.44;;;1.24;100.00
12676;BME280;63820;65.654;21.944;2024-02-23T01:28:26;99356.81;;;1.28;100.00
12676;BME280;63820;65.654;21.944;2024-02-23T01:31:11;99355.94;;;1.29;100.00
12676;BME280;63820;65.654;21.944;2024-02-23T01:33:55;99354.19;;;1.31;100.00
12676;BME280;63820;65.654;21.944;2024-02-23T01:36:39;99358.50;;;1.29;100.00
12676;BME280;63820;65.654;21.944;2024-02-23T01:39:24;99357.66;;;1.29;100.00
12676;BME280;63820;65.654;21.944;2024-02-23T01:42:08;99350.00;;;1.27;100.00
12676;BME280;63820;65.654;21.944;2024-02-23T01:44:52;99345.81;;;1.25;100.00
12676;BME280;63820;65.654;21.944;2024-02-23T01:47:36;99355.22;;;1.24;100.00
12676;BME280;63820;65.654;21.944;2024-02-23T01:50:21;99357.03;;;1.19;100.00
12676;BME280;63820;65.654;21.944;2024-02-23T01:53:05;99354.59;;;1.15;100.00
12676;BME280;63820;65.654;21.944;2024-02-23T01:55:50;99361.34;;;1.17;100.00
12676;BME280;63820;65.654;21.944;2024-02-23T01:58:35;99355.38;;;1.17;100.00
12676;BME280;63820;65.654;21.944;2024-02-23T02:01:19;99362.28;;;1.13;100.00
12676;BME280;63820;65.654;21.944;2024-02-23T02:04:03;99366.53;;;1.14;100.00
12676;BME280;63820;65.654;21.944;2024-02-23T02:06:47;99370.84;;;1.12;100.00
12676;BME280;63820;65.654;21.944;2024-02-23T02:09:32;99362.28;;;1.13;100.00
12676;BME280;63820;65.654;21.944;2024-02-23T02:12:28;99346.38;;;1.02;100.00
12676;BME280;63820;65.654;21.944;2024-02-23T02:15:13;99363.28;;;1.08;100.00
12676;BME280;63820;65.654;21.944;2024-02-23T02:17:57;99370.00;;;1.12;100.00
12676;BME280;63820;65.654;21.944;2024-02-23T02:20:50;99371.81;;;1.08;100.00
12676;BME280;63820;65.654;21.944;2024-02-23T02:23:35;99369.25;;;1.08;100.00
12676;BME280;63820;65.654;21.944;2024-02-23T02:26:21;99385.44;;;1.09;100.00
12676;BME280;63820;65.654;21.944;2024-02-23T02:29:05;99370.00;;;1.12;100.00
12676;BME280;63820;65.654;21.944;2024-02-23T02:31:49;99360.72;;;1.08;100.00
12676;BME280;63820;65.654;21.944;2024-02-23T02:34:33;99372.69;;;1.07;100.00
12676;BME280;63820;65.654;21.944;2024-02-23T02:37:19;99355.81;;;1.00;100.00
12676;BME280;63820;65.654;21.944;2024-02-23T02:40:03;99375.31;;;1.04;100.00
12676;BME280;63820;65.654;21.944;2024-02-23T02:42:48;99371.00;;;1.06;100.00
12676;BME280;63820;65.654;21.944;2024-02-23T02:45:32;99376.22;;;1.03;100.00
12676;BME280;63820;65.654;21.944;2024-02-23T02:48:16;99374.53;;;1.02;100.00
12676;BME280;63820;65.654;21.944;2024-02-23T02:51:00;99379.69;;;1.01;100.00
12676;BME280;63820;65.654;21.944;2024-02-23T02:53:44;99370.34;;;0.98;100.00
12676;BME280;63820;65.654;21.944;2024-02-23T02:56:28;99374.59;;;0.99;100.00
12676;BME280;63820;65.654;21.944;2024-02-23T02:59:12;99361.00;;;0.97;100.00
12676;BME280;63820;65.654;21.944;2024-02-23T03:01:56;99369.47;;;0.99;100.00
12676;BME280;63820;65.654;21.944;2024-02-23T03:04:50;99373.72;;;1.00;100.00
12676;BME280;63820;65.654;21.944;2024-02-23T03:07:34;99374.59;;;0.99;100.00
12676;BME280;63820;65.654;21.944;2024-02-23T03:10:18;99378.03;;;0.98;100.00
12676;BME280;63820;65.654;21.944;2024-02-23T03:13:02;99387.41;;;0.99;100.00
12676;BME280;63820;65.654;21.944;2024-02-23T03:15:46;99371.22;;;0.97;100.00
12676;BME280;63820;65.654;21.944;2024-02-23T03:18:30;99383.09;;;1.01;100.00
12676;BME280;63820;65.654;21.944;2024-02-23T03:21:14;99384.69;;;1.05;100.00
12676;BME280;63820;65.654;21.944;2024-02-23T03:23:59;99380.41;;;1.06;100.00
12676;BME280;63820;65.654;21.944;2024-02-23T03:26:43;99390.75;;;1.03;100.00
12676;BME280;63820;65.654;21.944;2024-02-23T03:29:28;99372.88;;;1.00;100.00
12676;BME280;63820;65.654;21.944;2024-02-23T03:32:14;99387.31;;;1.04;100.00
12676;BME280;63820;65.654;21.944;2024-02-23T03:34:58;99383.06;;;1.03;100.00
12676;BME280;63820;65.654;21.944;2024-02-23T03:37:42;99372.81;;;1.03;100.00
12676;BME280;63820;65.654;21.944;2024-02-23T03:40:26;99384.78;;;1.02;100.00
12676;BME280;63820;65.654;21.944;2024-02-23T03:43:10;99381.41;;;1.00;100.00
12676;BME280;63820;65.654;21.944;2024-02-23T03:45:54;99372.91;;;0.98;100.00
12676;BME280;63820;65.654;21.944;2024-02-23T03:48:38;99379.69;;;1.01;100.00
12676;BME280;63820;65.654;21.944;2024-02-23T03:51:22;99380.50;;;1.03;100.00
12676;BME280;63820;65.654;21.944;2024-02-23T03:54:06;99367.72;;;1.01;100.00
12676;BME280;63820;65.654;21.944;2024-02-23T03:56:51;99383.16;;;0.98;100.00
12676;BME280;63820;65.654;21.944;2024-02-23T03:59:36;99401.88;;;1.00;100.00
12676;BME280;63820;65.654;21.944;2024-02-23T04:02:21;99377.00;;;1.05;100.00
12676;BME280;63820;65.654;21.944;2024-02-23T04:05:06;99370.34;;;0.98;100.00
12676;BME280;63820;65.654;21.944;2024-02-23T04:07:51;99371.94;;;1.04;100.00
12676;BME280;63820;65.654;21.944;2024-02-23T04:10:35;99384.78;;;1.02;100.00
12676;BME280;63820;65.654;21.944;2024-02-23T04:13:19;99386.47;;;1.03;100.00
12676;BME280;63820;65.654;21.944;2024-02-23T04:16:04;99372.84;;;1.01;100.00
12676;BME280;63820;65.654;21.944;2024-02-23T04:18:48;99380.44;;;1.04;100.00
12676;BME280;63820;65.654;21.944;2024-02-23T04:21:32;99375.38;;;1.03;100.00
12676;BME280;63820;65.654;21.944;2024-02-23T04:24:16;99369.44;;;1.01;100.00
12676;BME280;63820;65.654;21.944;2024-02-23T04:27:00;99372.09;;;0.96;100.00
12676;BME280;63820;65.654;21.944;2024-02-23T04:29:44;99372.91;;;0.98;100.00
12676;BME280;63820;65.654;21.944;2024-02-23T04:32:28;99374.66;;;0.96;100.00
12676;BME280;63820;65.654;21.944;2024-02-23T04:35:12;99372.00;;;1.01;100.00
12676;BME280;63820;65.654;21.944;2024-02-23T04:37:56;99369.47;;;0.99;100.00
12676;BME280;63820;65.654;21.944;2024-02-23T04:40:40;99372.91;;;0.98;100.00
12676;BME280;63820;65.654;21.944;2024-02-23T04:43:25;99364.31;;;1.01;100.00
12676;BME280;63820;65.654;21.944;2024-02-23T04:46:09;99370.34;;;0.98;100.00
12676;BME280;63820;65.654;21.944;2024-02-23T04:48:53;99377.19;;;0.97;100.00
12676;BME280;63820;65.654;21.944;2024-02-23T04:51:37;99386.59;;;0.97;100.00
12676;BME280;63820;65.654;21.944;2024-02-23T04:54:21;99381.44;;;0.98;100.00
12676;BME280;63820;65.654;21.944;2024-02-23T04:57:05;99385.66;;;1.01;100.00
12676;BME280;63820;65.654;21.944;2024-02-23T04:59:49;99386.59;;;0.97;100.00
12676;BME280;63820;65.654;21.944;2024-02-23T05:02:33;99390.03;;;0.96;100.00
12676;BME280;63820;65.654;21.944;2024-02-23T05:05:18;99395.97;;;0.98;100.00
12676;BME280;63820;65.654;21.944;2024-02-23T05:08:03;99395.09;;;0.99;100.00
12676;BME280;63820;65.654;21.944;2024-02-23T05:10:47;99380.63;;;0.96;100.00
12676;BME280;63820;65.654;21.944;2024-02-23T05:13:31;99384.91;;;0.96;100.00
12676;BME280;63820;65.654;21.944;2024-02-23T05:16:15;99388.34;;;0.95;100.00
12676;BME280;63820;65.654;21.944;2024-02-23T05:18:59;99382.22;;;1.02;100.00
12676;BME280;63820;65.654;21.944;2024-02-23T05:21:43;99385.75;;;0.96;100.00
12676;BME280;63820;65.654;21.944;2024-02-23T05:24:27;99385.72;;;0.98;100.00
12676;BME280;63820;65.654;21.944;2024-02-23T05:27:11;99388.31;;;0.96;100.00
12676;BME280;63820;65.654;21.944;2024-02-23T05:29:55;99382.31;;;0.97;100.00
12676;BME280;63820;65.654;21.944;2024-02-23T05:32:38;99395.16;;;0.96;100.00
12676;BME280;63820;65.654;21.944;2024-02-23T05:35:22;99388.28;;;0.98;100.00
12676;BME280;63820;65.654;21.944;2024-02-23T05:38:06;99390.84;;;0.98;100.00
12676;BME280;63820;65.654;21.944;2024-02-23T05:40:50;99401.97;;;0.97;100.00
12676;BME280;63820;65.654;21.944;2024-02-23T05:43:35;99395.28;;;0.90;100.00
12676;BME280;63820;65.654;21.944;2024-02-23T05:46:19;99398.59;;;0.95;100.00
12676;BME280;63820;65.654;21.944;2024-02-23T05:49:05;99396.00;;;0.96;100.00
12676;BME280;63820;65.654;21.944;2024-02-23T05:51:49;99405.31;;;0.99;100.00
12676;BME280;63820;65.654;21.944;2024-02-23T05:54:33;99408.78;;;0.96;100.00
12676;BME280;63820;65.654;21.944;2024-02-23T05:57:17;99407.88;;;0.99;100.00
12676;BME280;63820;65.654;21.944;2024-02-23T06:00:01;99409.63;;;0.97;100.00
12676;BME280;63820;65.654;21.944;2024-02-23T06:02:45;99424.09;;;1.00;100.00
12676;BME280;63820;65.654;21.944;2024-02-23T06:05:29;99412.19;;;0.97;100.00
12676;BME280;63820;65.654;21.944;2024-02-23T06:08:13;99415.56;;;0.99;100.00
12676;BME280;63820;65.654;21.944;2024-02-23T06:10:57;99418.25;;;0.93;100.00
12676;BME280;63820;65.654;21.944;2024-02-23T06:13:43;99422.38;;;1.00;100.00
12676;BME280;63820;65.654;21.944;2024-02-23T06:16:27;99420.75;;;0.96;100.00
12676;BME280;63820;65.654;21.944;2024-02-23T06:19:12;99419.94;;;0.94;100.00
12676;BME280;63820;65.654;21.944;2024-02-23T06:21:56;99419.06;;;0.95;100.00
12676;BME280;63820;65.654;21.944;2024-02-23T06:24:40;99413.03;;;0.97;100.00
12676;BME280;63820;65.654;21.944;2024-02-23T06:27:24;99419.84;;;0.98;100.00
12676;BME280;63820;65.654;21.944;2024-02-23T06:30:09;99418.94;;;1.01;100.00
12676;BME280;63820;65.654;21.944;2024-02-23T06:32:54;99425.75;;;1.02;100.00
12676;BME280;63820;65.654;21.944;2024-02-23T06:35:38;99426.63;;;1.01;100.00
12676;BME280;63820;65.654;21.944;2024-02-23T06:38:22;99420.75;;;0.96;100.00
12676;BME280;63820;65.654;21.944;2024-02-23T06:41:06;99419.78;;;1.02;100.00
12676;BME280;63820;65.654;21.944;2024-02-23T06:43:52;99426.50;;;1.06;100.00
12676;BME280;63820;65.654;21.944;2024-02-23T06:46:36;99412.06;;;1.03;100.00
12676;BME280;63820;65.654;21.944;2024-02-23T06:49:20;99418.72;;;1.10;100.00
12676;BME280;63820;65.654;21.944;2024-02-23T06:52:04;99415.34;;;1.08;100.00
12676;BME280;63820;65.654;21.944;2024-02-23T06:54:48;99418.72;;;1.10;100.00
12676;BME280;63820;65.654;21.944;2024-02-23T06:57:32;99422.94;;;1.11;100.00
12676;BME280;63820;65.654;21.944;2024-02-23T07:00:16;99419.59;;;1.09;100.00
12676;BME280;63820;65.654;21.944;2024-02-23T07:03:02;99417.78;;;1.13;100.00
12676;BME280;63820;65.654;21.944;2024-02-23T07:05:47;99413.56;;;1.12;100.00
12676;BME280;63820;65.654;21.944;2024-02-23T07:08:32;99417.72;;;1.16;100.00
12676;BME280;63820;65.654;21.944;2024-02-23T07:11:16;99422.88;;;1.14;100.00
12676;BME280;63820;65.654;21.944;2024-02-23T07:14:00;99418.63;;;1.13;100.00
12676;BME280;63820;65.654;21.944;2024-02-23T07:16:44;99416.81;;;1.18;100.00
12676;BME280;63820;65.654;21.944;2024-02-23T07:19:28;99427.13;;;1.15;100.00
12676;BME280;63820;65.654;21.944;2024-02-23T07:22:11;99422.84;;;1.16;100.00
12676;BME280;63820;65.654;21.944;2024-02-23T07:24:55;99430.50;;;1.17;100.00
12676;BME280;63820;65.654;21.944;2024-02-23T07:27:39;99433.06;;;1.17;100.00
12676;BME280;63820;65.654;21.944;2024-02-23T07:30:23;99436.53;;;1.15;100.00
12676;BME280;63820;65.654;21.944;2024-02-23T07:33:07;99438.84;;;1.25;100.00
12676;BME280;63820;65.654;21.944;2024-02-23T07:35:51;99434.84;;;1.14;100.00
12676;BME280;63820;65.654;21.944;2024-02-23T07:38:35;99435.53;;;1.22;100.00
12676;BME280;63820;65.654;21.944;2024-02-23T07:41:19;99435.63;;;1.17;100.00
12676;BME280;63820;65.654;21.944;2024-02-23T07:44:03;99432.13;;;1.21;100.00
12676;BME280;63820;65.654;21.944;2024-02-23T07:46:47;99428.63;;;1.25;100.00
12676;BME280;63820;65.654;21.944;2024-02-23T07:49:31;99425.97;;;1.28;100.00
12676;BME280;63820;65.654;21.944;2024-02-23T07:52:15;99426.94;;;1.24;100.00
12676;BME280;63820;65.654;21.944;2024-02-23T07:54:59;99430.25;;;1.28;100.00
12676;BME280;63820;65.654;21.944;2024-02-23T07:57:46;99424.84;;;1.40;100.00
12676;BME280;63820;65.654;21.944;2024-02-23T08:00:30;99422.19;;;1.45;100.00
12676;BME280;63820;65.654;21.944;2024-02-23T08:03:14;99421.25;;;1.49;100.00
